Time;durP1;ratioP1;P1;durP2;ratioP2;P2;SDS_P1;SDS_P2;PMS_P1;PMS_P2;Temp;Humidity;BMP_temperature;BMP_pressure;BME280_temperature;BME280_humidity;BME280_pressure;Samples;Min_cycle;Max_cycle;Signal;HPM_P1;HPM_P2
2023/08/03 00:00:17;;;;;;;;;;;;;;;-145.06;100.00;60892.56;4756492;29;19914;-91
2023/08/03 00:02:56;;;;;;;;;;;;;;;-145.06;100.00;60892.56;4751995;29;20144;-92
2023/08/03 00:05:37;;;;;;;;;;;;;;;-145.06;100.00;60892.56;4747545;29;19998;-94
2023/08/03 00:08:17;;;;;;;;;;;;;;;-145.06;100.00;60892.56;4753870;29;19923;-93
2023/08/03 00:10:55;;;;;;;;;;;;;;;-145.06;100.00;60892.56;4755714;29;19918;-92
2023/08/03 00:13:34;;;;;;;;;;;;;;;-145.06;100.00;60892.56;4757079;29;19919;-93
2023/08/03 00:16:13;;;;;;;;;;;;;;;-145.06;100.00;60892.56;4759597;29;19919;-93
2023/08/03 00:18:52;;;;;;;;;;;;;;;-145.06;100.00;60892.56;4749432;29;19915;-94
2023/08/03 00:21:34;;;;;;;;;;;;;;;-145.06;100.00;60892.56;4743402;29;19915;-94
2023/08/03 00:24:13;;;;;;;;;;;;;;;-145.06;100.00;60892.56;4737705;29;19919;-90
2023/08/03 00:26:52;;;;;;;;;;;;;;;-145.06;100.00;60892.56;4737946;29;19915;-91
2023/08/03 00:29:31;;;;;;;;;;;;;;;-145.06;100.00;60892.56;4722261;29;19915;-94
2023/08/03 00:32:10;;;;;;;;;;;;;;;-145.06;100.00;60892.56;4724047;29;19955;-94
2023/08/03 00:34:49;;;;;;;;;;;;;;;-145.06;100.00;60892.56;4723783;29;19920;-93
2023/08/03 00:37:29;;;;;;;;;;;;;;;-145.06;100.00;60892.56;4724605;29;19915;-93
2023/08/03 00:40:08;;;;;;;;;;;;;;;-145.06;100.00;60892.56;4740860;29;20269;-94
2023/08/03 00:42:48;;;;;;;;;;;;;;;-145.06;100.00;60892.56;4761506;29;20258;-93
2023/08/03 00:45:27;;;;;;;;;;;;;;;-145.06;100.00;60892.56;4745573;29;19916;-93
2023/08/03 00:48:08;;;;;;;;;;;;;;;-145.06;100.00;60892.56;4759483;29;19938;-94
2023/08/03 00:50:47;;;;;;;;;;;;;;;-145.06;100.00;60892.56;4760087;29;19915;-94
2023/08/03 00:53:29;;;;;;;;;;;;;;;-145.06;100.00;60892.56;4761090;29;19918;-93
2023/08/03 00:56:08;;;;;;;;;;;;;;;-145.06;100.00;60892.56;4722734;29;19955;-92
2023/08/03 00:58:47;;;;;;;;;;;;;;;-145.06;100.00;60892.56;4715487;29;19915;-94
2023/08/03 01:01:26;;;;;;;;;;;;;;;-145.06;100.00;60892.56;4722798;29;19915;-93
2023/08/03 01:04:05;;;;;;;;;;;;;;;-145.06;100.00;60892.56;4723667;29;20014;-93
2023/08/03 01:06:47;;;;;;;;;;;;;;;-145.06;100.00;60892.56;4723456;29;19915;-94
2023/08/03 01:09:26;;;;;;;;;;;;;;;-145.06;100.00;60892.56;4758663;29;19915;-92
2023/08/03 01:12:05;;;;;;;;;;;;;;;-145.06;100.00;60892.56;4759689;29;19954;-94
2023/08/03 01:14:45;;;;;;;;;;;;;;;-145.06;100.00;60892.56;4754755;29;20378;-94
2023/08/03 01:17:25;;;;;;;;;;;;;;;-145.06;100.00;60892.56;4740163;29;20421;-94
2023/08/03 01:20:04;;;;;;;;;;;;;;;-145.06;100.00;60892.56;4740514;29;19970;-93
2023/08/03 01:22:43;;;;;;;;;;;;;;;-145.06;100.00;60892.56;4757741;29;20009;-95
2023/08/03 01:25:22;;;;;;;;;;;;;;;-145.06;100.00;60892.56;4757334;29;19915;-92
2023/08/03 01:28:04;;;;;;;;;;;;;;;-145.06;100.00;60892.56;4755424;29;19915;-93
2023/08/03 01:30:43;;;;;;;;;;;;;;;-145.06;100.00;60892.56;4737005;29;20002;-92
2023/08/03 01:33:23;;;;;;;;;;;;;;;-145.06;100.00;60892.56;4721874;29;19923;-93
2023/08/03 01:36:05;;;;;;;;;;;;;;;-145.06;100.00;60892.56;4747246;29;20306;-92
2023/08/03 01:38:44;;;;;;;;;;;;;;;-145.06;100.00;60892.56;4750430;29;19915;-90
2023/08/03 01:41:23;;;;;;;;;;;;;;;-145.06;100.00;60892.56;4738741;29;19919;-91
2023/08/03 01:44:17;;;;;;;;;;;;;;;-145.06;100.00;60892.56;4739952;29;20058;-92
2023/08/03 01:46:57;;;;;;;;;;;;;;;-145.06;100.00;60892.56;4769571;29;19915;-94
2023/08/03 01:49:36;;;;;;;;;;;;;;;-145.06;100.00;60892.56;4740315;29;19919;-93
2023/08/03 01:52:15;;;;;;;;;;;;;;;-145.06;100.00;60892.56;4755985;29;20259;-94
2023/08/03 01:54:54;;;;;;;;;;;;;;;-145.06;100.00;60892.56;4744637;29;19965;-93
2023/08/03 01:57:34;;;;;;;;;;;;;;;-145.06;100.00;60892.56;4722903;29;19920;-91
2023/08/03 02:00:13;;;;;;;;;;;;;;;-145.06;100.00;60892.56;4741224;29;19919;-91
2023/08/03 02:02:52;;;;;;;;;;;;;;;-145.06;100.00;60892.56;4755629;29;19914;-92
2023/08/03 02:05:31;;;;;;;;;;;;;;;-145.06;100.00;60892.56;4755366;29;20453;-91
2023/08/03 02:08:10;;;;;;;;;;;;;;;18.28;100.00;60892.56;4748743;29;19916;-91
2023/08/03 02:10:49;;;;;;;;;;;;;;;-145.06;100.00;60892.56;4754707;29;19919;-91
2023/08/03 02:13:28;;;;;;;;;;;;;;;-145.06;100.00;60892.56;4754604;29;19954;-91
2023/08/03 02:16:10;;;;;;;;;;;;;;;-145.06;100.00;60892.56;4756426;29;19915;-93
2023/08/03 02:18:49;;;;;;;;;;;;;;;-145.06;100.00;60892.56;4731332;29;19915;-93
2023/08/03 02:21:27;;;;;;;;;;;;;;;-145.06;100.00;60892.56;4752207;29;19915;-92
2023/08/03 02:24:06;;;;;;;;;;;;;;;-145.06;100.00;60892.56;4742917;29;19923;-92
2023/08/03 02:26:45;;;;;;;;;;;;;;;-145.06;100.00;60892.56;4754590;29;19915;-91
2023/08/03 02:29:25;;;;;;;;;;;;;;;-145.06;100.00;60892.56;4737085;29;20524;-91
2023/08/03 02:32:07;;;;;;;;;;;;;;;-145.06;100.00;60892.56;4737244;29;19951;-92
2023/08/03 02:34:47;;;;;;;;;;;;;;;-145.06;100.00;60892.56;4733406;29;20374;-92
2023/08/03 02:37:26;;;;;;;;;;;;;;;-145.06;100.00;60892.56;4744734;29;19915;-93
2023/08/03 02:40:08;;;;;;;;;;;;;;;-145.06;100.00;60892.56;4761135;29;19914;-93
2023/08/03 02:42:47;;;;;;;;;;;;;;;-145.06;100.00;60892.56;4759755;29;19915;-93
2023/08/03 02:45:26;;;;;;;;;;;;;;;-145.06;100.00;60892.56;4758978;29;20254;-93
2023/08/03 02:48:05;;;;;;;;;;;;;;;-145.06;100.00;60892.56;4752489;29;19915;-92
2023/08/03 02:50:44;;;;;;;;;;;;;;;-145.06;100.00;60892.56;4742124;29;20267;-92
2023/08/03 02:53:23;;;;;;;;;;;;;;;-145.06;100.00;60892.56;4759755;29;20514;-92
2023/08/03 02:56:02;;;;;;;;;;;;;;;-145.06;100.00;60892.56;4746874;29;20251;-94
2023/08/03 02:58:41;;;;;;;;;;;;;;;-145.06;100.00;60892.56;4740325;29;20398;-94
2023/08/03 03:01:21;;;;;;;;;;;;;;;-145.06;100.00;60892.56;4747236;29;19914;-93
2023/08/03 03:04:03;;;;;;;;;;;;;;;-145.06;100.00;60892.56;4757750;29;19915;-92
2023/08/03 03:06:48;;;;;;;;;;;;;;;-145.06;100.00;60892.56;4760347;29;19962;-92
2023/08/03 03:09:27;;;;;;;;;;;;;;;-145.06;100.00;60892.56;4739535;29;19923;-92
2023/08/03 03:12:06;;;;;;;;;;;;;;;-145.06;100.00;60892.56;4740028;29;20005;-93
2023/08/03 03:14:45;;;;;;;;;;;;;;;-145.06;100.00;60892.56;4740070;29;19919;-91
2023/08/03 03:17:24;;;;;;;;;;;;;;;-145.06;100.00;60892.56;4749107;29;19915;-93
2023/08/03 03:20:03;;;;;;;;;;;;;;;-145.06;100.00;60892.56;4758359;29;19919;-93
2023/08/03 03:22:42;;;;;;;;;;;;;;;-145.06;100.00;60892.56;4757310;29;19918;-93
2023/08/03 03:25:21;;;;;;;;;;;;;;;-145.06;100.00;60892.56;4758061;29;19915;-93
2023/08/03 03:28:04;;;;;;;;;;;;;;;-145.06;100.00;60892.56;4746392;29;20319;-94
2023/08/03 03:30:43;;;;;;;;;;;;;;;-145.06;100.00;60892.56;4743133;29;19915;-93
2023/08/03 03:33:22;;;;;;;;;;;;;;;-145.06;100.00;60892.56;4757492;29;19952;-93
2023/08/03 03:36:01;;;;;;;;;;;;;;;-145.06;100.00;60892.56;4749102;29;20005;-92
2023/08/03 03:38:40;;;;;;;;;;;;;;;-145.06;100.00;60892.56;4743279;29;19958;-92
2023/08/03 03:41:22;;;;;;;;;;;;;;;-145.06;100.00;60892.56;4759539;29;19915;-94
2023/08/03 03:44:05;;;;;;;;;;;;;;;-145.06;100.00;60892.56;4724266;29;20387;-91
2023/08/03 03:46:44;;;;;;;;;;;;;;;-145.06;100.00;60892.56;4753026;29;19915;-92
2023/08/03 03:49:23;;;;;;;;;;;;;;;-145.06;100.00;60892.56;4757611;29;19919;-92
2023/08/03 03:52:02;;;;;;;;;;;;;;;-145.06;100.00;60892.56;4756883;29;20335;-92
2023/08/03 03:54:41;;;;;;;;;;;;;;;-145.06;100.00;60892.56;4755515;29;19923;-91
2023/08/03 03:57:20;;;;;;;;;;;;;;;-145.06;100.00;60892.56;4756769;29;19914;-92
2023/08/03 03:59:59;;;;;;;;;;;;;;;-145.06;100.00;60892.56;4756992;29;19915;-92
2023/08/03 04:02:38;;;;;;;;;;;;;;;-145.06;100.00;60892.56;4742765;29;19949;-92
2023/08/03 04:05:18;;;;;;;;;;;;;;;-145.06;100.00;60892.56;4756491;29;19915;-91
2023/08/03 04:07:56;;;;;;;;;;;;;;;-145.06;100.00;60892.56;4742849;29;19916;-93
2023/08/03 04:10:36;;;;;;;;;;;;;;;-145.06;100.00;60892.56;4726281;29;19958;-93
2023/08/03 04:13:14;;;;;;;;;;;;;;;-145.06;100.00;60892.56;4748081;29;19923;-92
2023/08/03 04:15:56;;;;;;;;;;;;;;;-145.06;100.00;60892.56;4757859;29;19958;-93
2023/08/03 04:18:35;;;;;;;;;;;;;;;-145.06;100.00;60892.56;4753741;29;19915;-92
2023/08/03 04:21:14;;;;;;;;;;;;;;;-145.06;100.00;60892.56;4757284;29;20013;-91
2023/08/03 04:23:53;;;;;;;;;;;;;;;-145.06;100.00;60892.56;4752954;29;19915;-91
2023/08/03 04:26:32;;;;;;;;;;;;;;;-145.06;100.00;60892.56;4736142;29;19958;-93
2023/08/03 04:29:11;;;;;;;;;;;;;;;-145.06;100.00;60892.56;4736825;29;19915;-91
2023/08/03 04:31:50;;;;;;;;;;;;;;;-145.06;100.00;60892.56;4756154;29;19914;-91
2023/08/03 04:34:30;;;;;;;;;;;;;;;-145.06;100.00;60892.56;4756364;29;19918;-93
2023/08/03 04:37:08;;;;;;;;;;;;;;;-145.06;100.00;60892.56;4748309;29;20382;-93
2023/08/03 04:39:49;;;;;;;;;;;;;;;-145.06;100.00;60892.56;4724418;29;19916;-94
2023/08/03 04:42:28;;;;;;;;;;;;;;;-145.06;100.00;60892.56;4743265;29;19915;-93
2023/08/03 04:45:07;;;;;;;;;;;;;;;-145.06;100.00;60892.56;4756338;29;19919;-92
2023/08/03 04:47:45;;;;;;;;;;;;;;;-145.06;100.00;60892.56;4757483;29;19915;-93
2023/08/03 04:50:24;;;;;;;;;;;;;;;-145.06;100.00;60892.56;4757207;29;19946;-93
2023/08/03 04:53:03;;;;;;;;;;;;;;;-145.06;100.00;60892.56;4750070;29;19919;-91
2023/08/03 04:55:44;;;;;;;;;;;;;;;-145.06;100.00;60892.56;4739570;29;20155;-92
2023/08/03 04:58:26;;;;;;;;;;;;;;;-145.06;100.00;60892.56;4728373;29;19920;-95
2023/08/03 05:01:05;;;;;;;;;;;;;;;-145.06;100.00;60892.56;4743531;29;19919;-93
2023/08/03 05:03:44;;;;;;;;;;;;;;;-145.06;100.00;60892.56;4739141;29;20002;-92
2023/08/03 05:06:23;;;;;;;;;;;;;;;-145.06;100.00;60892.56;4740018;29;19954;-93
2023/08/03 05:09:02;;;;;;;;;;;;;;;-145.06;100.00;60892.56;4749522;29;19919;-90
2023/08/03 05:11:44;;;;;;;;;;;;;;;-145.06;100.00;60892.56;4758730;29;19923;-93
2023/08/03 05:14:23;;;;;;;;;;;;;;;-145.06;100.00;60892.56;4751691;29;19923;-91
2023/08/03 05:17:02;;;;;;;;;;;;;;;-145.06;100.00;60892.56;4748855;29;19950;-92
2023/08/03 05:19:41;;;;;;;;;;;;;;;-145.06;100.00;60892.56;4757795;29;19915;-92
2023/08/03 05:22:20;;;;;;;;;;;;;;;-145.06;100.00;60892.56;4751415;29;19915;-92
2023/08/03 05:24:59;;;;;;;;;;;;;;;-145.06;100.00;60892.56;4748283;29;19920;-93
2023/08/03 05:27:38;;;;;;;;;;;;;;;-145.06;100.00;60892.56;4754941;29;19942;-93
2023/08/03 05:30:17;;;;;;;;;;;;;;;-145.06;100.00;60892.56;4740944;29;19919;-92
2023/08/03 05:32:57;;;;;;;;;;;;;;;-145.06;100.00;60892.56;4757814;29;20059;-91
2023/08/03 05:35:36;;;;;;;;;;;;;;;-145.06;100.00;60892.56;4745800;29;19955;-93
2023/08/03 05:38:15;;;;;;;;;;;;;;;-145.06;100.00;60892.56;4745651;29;19919;-92
2023/08/03 05:40:54;;;;;;;;;;;;;;;18.15;100.00;60892.56;4740998;29;19915;-93
2023/08/03 05:43:33;;;;;;;;;;;;;;;18.18;100.00;60892.56;4738015;29;20366;-92
2023/08/03 05:46:13;;;;;;;;;;;;;;;18.19;100.00;60892.56;4747086;29;19947;-93
2023/08/03 05:48:58;;;;;;;;;;;;;;;18.20;100.00;60892.56;4731206;29;19958;-92
2023/08/03 05:51:39;;;;;;;;;;;;;;;18.21;100.00;60892.56;4719289;29;19919;-93
2023/08/03 05:54:50;;;;;;;;;;;;;;;18.22;100.00;60892.56;4729152;29;19919;-94
2023/08/03 05:58:14;;;;;;;;;;;;;;;18.24;100.00;60892.56;4735807;29;19978;-95
2023/08/03 06:01:15;;;;;;;;;;;;;;;;;;;;;
2023/08/03 06:03:54;;;;;;;;;;;;;;;18.27;100.00;60892.56;4760280;29;20389;-94
2023/08/03 06:06:33;;;;;;;;;;;;;;;18.29;100.00;60892.56;4740913;29;19962;-93
2023/08/03 06:09:13;;;;;;;;;;;;;;;18.31;100.00;60892.56;4737687;29;19915;-92
2023/08/03 06:11:52;;;;;;;;;;;;;;;18.31;100.00;60892.56;4743810;29;19919;-93
2023/08/03 06:14:32;;;;;;;;;;;;;;;18.33;100.00;60892.56;4741850;29;20275;-94
2023/08/03 06:17:11;;;;;;;;;;;;;;;-145.06;100.00;60892.56;4740048;29;19919;-92
2023/08/03 06:19:50;;;;;;;;;;;;;;;18.34;100.00;60892.56;4748416;29;19970;-94
2023/08/03 06:22:29;;;;;;;;;;;;;;;18.35;100.00;60892.56;4721700;29;19954;-92
2023/08/03 06:25:11;;;;;;;;;;;;;;;18.38;100.00;60892.56;4754574;29;19915;-93
2023/08/03 06:27:50;;;;;;;;;;;;;;;18.37;100.00;104794.97;4755997;29;19915;-93
2023/08/03 06:30:29;;;;;;;;;;;;;;;18.39;100.00;60892.56;4746342;29;19915;-93
2023/08/03 06:33:11;;;;;;;;;;;;;;;18.39;100.00;60892.56;4738515;29;20413;-92
2023/08/03 06:35:53;;;;;;;;;;;;;;;18.40;100.00;60892.56;4741764;29;19915;-95
2023/08/03 06:38:42;;;;;;;;;;;;;;;18.40;100.00;60892.56;4722988;29;19915;-95
2023/08/03 06:41:25;;;;;;;;;;;;;;;18.41;100.00;60892.56;4722702;29;19959;-94
2023/08/03 06:44:05;;;;;;;;;;;;;;;18.41;100.00;60892.56;4723595;29;19915;-95
2023/08/03 06:46:46;;;;;;;;;;;;;;;18.42;100.00;60892.56;4722988;29;19919;-94
2023/08/03 06:49:25;;;;;;;;;;;;;;;18.44;100.00;60892.56;4723426;29;19916;-95
2023/08/03 06:52:09;;;;;;;;;;;;;;;18.44;100.00;60892.56;4723485;29;19958;-95
2023/08/03 06:54:51;;;;;;;;;;;;;;;18.46;100.00;60892.56;4739076;29;19919;-93
2023/08/03 06:57:33;;;;;;;;;;;;;;;18.45;100.00;81616.88;4741393;29;19911;-95
2023/08/03 07:00:12;;;;;;;;;;;;;;;18.45;100.00;60892.56;4740589;29;19915;-92
2023/08/03 07:02:52;;;;;;;;;;;;;;;18.43;100.00;60892.56;4740499;29;19916;-95
2023/08/03 07:05:31;;;;;;;;;;;;;;;18.43;100.00;60892.56;4749515;29;19914;-91
2023/08/03 07:08:15;;;;;;;;;;;;;;;18.43;100.00;60892.56;4759121;29;19915;-95
2023/08/03 07:10:57;;;;;;;;;;;;;;;18.43;100.00;60892.56;4761417;29;19919;-94
2023/08/03 07:13:39;;;;;;;;;;;;;;;18.42;100.00;60892.56;4759182;29;19938;-94
2023/08/03 07:16:22;;;;;;;;;;;;;;;18.41;100.00;60892.56;4758978;29;19950;-92
2023/08/03 07:19:12;;;;;;;;;;;;;;;18.41;100.00;60892.56;4758440;29;19915;-94
2023/08/03 07:21:51;;;;;;;;;;;;;;;18.41;100.00;60892.56;4758597;29;19938;-95
2023/08/03 07:24:40;;;;;;;;;;;;;;;18.40;100.00;60892.56;4763053;29;19915;-93
2023/08/03 07:27:19;;;;;;;;;;;;;;;18.40;100.00;60892.56;4764262;29;19914;-94
2023/08/03 07:30:04;;;;;;;;;;;;;;;18.40;100.00;60892.56;4763426;29;19957;-95
2023/08/03 07:32:44;;;;;;;;;;;;;;;18.40;100.00;60892.56;4771203;29;19919;-95
2023/08/03 07:35:26;;;;;;;;;;;;;;;18.39;100.00;60892.56;4760626;29;19918;-94
2023/08/03 07:38:05;;;;;;;;;;;;;;;18.39;100.00;60892.56;4760381;29;20002;-91
2023/08/03 07:40:44;;;;;;;;;;;;;;;18.39;100.00;60892.56;4760887;29;20369;-94
2023/08/03 07:43:23;;;;;;;;;;;;;;;-145.06;100.00;60892.56;4760421;29;19974;-94
2023/08/03 07:46:02;;;;;;;;;;;;;;;-145.06;100.00;60892.56;4761750;29;19915;-94
2023/08/03 07:48:47;;;;;;;;;;;;;;;18.46;100.00;60892.56;4760944;29;19998;-94
2023/08/03 07:51:26;;;;;;;;;;;;;;;-145.06;100.00;60892.56;4761998;29;19915;-92
2023/08/03 07:54:05;;;;;;;;;;;;;;;-145.06;100.00;60892.56;4751355;29;19919;-96
2023/08/03 07:56:53;;;;;;;;;;;;;;;-145.06;100.00;60892.56;4743867;29;19915;-95
2023/08/03 07:59:32;;;;;;;;;;;;;;;-145.06;100.00;60892.56;4741701;29;19978;-94
2023/08/03 08:02:27;;;;;;;;;;;;;;;-145.06;100.00;60892.56;4743796;29;19946;-93
2023/08/03 08:05:06;;;;;;;;;;;;;;;-145.06;100.00;60892.56;4744462;29;19915;-93
2023/08/03 08:07:51;;;;;;;;;;;;;;;-145.06;100.00;60892.56;4742243;29;20254;-93
2023/08/03 08:10:30;;;;;;;;;;;;;;;-145.06;100.00;60892.56;4741307;29;19919;-94
2023/08/03 08:13:12;;;;;;;;;;;;;;;-145.06;100.00;60892.56;4741420;29;19915;-93
2023/08/03 08:16:04;;;;;;;;;;;;;;;-145.06;100.00;60892.56;4742708;29;19915;-94
2023/08/03 08:18:43;;;;;;;;;;;;;;;-145.06;100.00;60892.56;4741868;29;19915;-94
2023/08/03 08:21:22;;;;;;;;;;;;;;;-145.06;100.00;60892.56;4739822;29;19915;-96
2023/08/03 08:24:04;;;;;;;;;;;;;;;-145.06;100.00;60892.56;4741236;29;19915;-96
2023/08/03 08:26:44;;;;;;;;;;;;;;;-145.06;100.00;60892.56;4741851;29;19919;-94
2023/08/03 08:29:28;;;;;;;;;;;;;;;-145.06;100.00;60892.56;4741790;29;19915;-94
2023/08/03 08:32:14;;;;;;;;;;;;;;;-145.06;100.00;60892.56;4741570;29;20592;-94
2023/08/03 08:34:56;;;;;;;;;;;;;;;18.59;100.00;60892.56;4739996;29;19923;-93
2023/08/03 08:37:38;;;;;;;;;;;;;;;-145.06;100.00;60892.56;4742994;29;19915;-96
2023/08/03 08:40:50;;;;;;;;;;;;;;;-145.06;100.00;60892.56;4744132;29;19915;-93
2023/08/03 08:43:35;;;;;;;;;;;;;;;-145.06;100.00;60892.56;4743142;29;19915;-94
2023/08/03 08:46:37;;;;;;;;;;;;;;;-145.06;100.00;60892.56;4744716;29;19915;-94
2023/08/03 08:49:51;;;;;;;;;;;;;;;-145.06;100.00;60892.56;4758289;29;19915;-95
2023/08/03 09:07:19;;;;;;;;;;;;;;;-145.06;100.00;60892.56;4805039;23;19927;-93
2023/08/03 09:10:01;;;;;;;;;;;;;;;-145.06;100.00;60892.56;4751676;29;19915;-93
2023/08/03 09:12:50;;;;;;;;;;;;;;;-145.06;100.00;60892.56;4761495;29;19984;-93
2023/08/03 09:16:01;;;;;;;;;;;;;;;;;;;;;
2023/08/03 09:22:11;;;;;;;;;;;;;;;-145.06;100.00;60892.56;4760768;29;20010;-94
2023/08/03 09:25:11;;;;;;;;;;;;;;;-145.06;100.00;60892.56;4758308;29;20251;-94
2023/08/03 09:27:54;;;;;;;;;;;;;;;-145.06;100.00;60892.56;4759258;29;19915;-93
2023/08/03 09:30:46;;;;;;;;;;;;;;;-145.06;100.00;60892.56;4758165;29;19915;-93
2023/08/03 09:33:28;;;;;;;;;;;;;;;-145.06;100.00;60892.56;4757266;29;19919;-95
2023/08/03 09:36:11;;;;;;;;;;;;;;;-145.06;100.00;60892.56;4744234;29;19946;-93
2023/08/03 09:38:52;;;;;;;;;;;;;;;-145.06;100.00;60892.56;4756914;29;19915;-93
2023/08/03 09:41:35;;;;;;;;;;;;;;;-145.06;100.00;60892.56;4756925;29;19944;-94
2023/08/03 09:44:23;;;;;;;;;;;;;;;-145.06;100.00;60892.56;4757246;29;19915;-94
2023/08/03 09:47:08;;;;;;;;;;;;;;;-145.06;100.00;60892.56;4755403;29;20009;-93
2023/08/03 09:49:47;;;;;;;;;;;;;;;-145.06;100.00;60892.56;4755311;29;20345;-95
2023/08/03 09:52:27;;;;;;;;;;;;;;;-145.06;100.00;60892.56;4758835;29;19915;-93
2023/08/03 09:55:29;;;;;;;;;;;;;;;-145.06;100.00;60892.56;4757351;29;19982;-94
2023/08/03 09:58:12;;;;;;;;;;;;;;;-145.06;100.00;60892.56;4756363;29;19915;-95
2023/08/03 10:00:51;;;;;;;;;;;;;;;-145.06;100.00;60892.56;4756881;29;19974;-94
2023/08/03 10:03:32;;;;;;;;;;;;;;;-145.06;100.00;60892.56;4756223;29;19915;-92
2023/08/03 10:06:16;;;;;;;;;;;;;;;-145.06;100.00;60892.56;4755979;29;19923;-93
2023/08/03 10:08:56;;;;;;;;;;;;;;;-145.06;100.00;60892.56;4756315;29;19914;-91
2023/08/03 10:11:38;;;;;;;;;;;;;;;-145.06;100.00;60892.56;4756304;29;19915;-93
2023/08/03 10:14:21;;;;;;;;;;;;;;;-145.06;100.00;60892.56;4756531;29;19919;-93
2023/08/03 10:17:11;;;;;;;;;;;;;;;-145.06;100.00;60892.56;4775308;29;19915;-93
2023/08/03 10:20:06;;;;;;;;;;;;;;;;;;;;;
2023/08/03 10:23:04;;;;;;;;;;;;;;;-145.06;100.00;60892.56;4765584;29;19966;-94
2023/08/03 10:25:59;;;;;;;;;;;;;;;-145.06;100.00;60892.56;4739887;29;20006;-94
2023/08/03 10:28:38;;;;;;;;;;;;;;;-145.06;100.00;60892.56;4740558;29;19915;-94
2023/08/03 10:31:40;;;;;;;;;;;;;;;-145.06;100.00;60892.56;4742622;29;19915;-95
2023/08/03 10:34:45;;;;;;;;;;;;;;;-145.06;100.00;60892.56;4736662;29;20383;-93
2023/08/03 10:37:45;;;;;;;;;;;;;;;-145.06;100.00;60892.56;4738653;29;20378;-95
2023/08/03 10:40:37;;;;;;;;;;;;;;;-145.06;100.00;60892.56;4738813;29;20239;-96
2023/08/03 10:43:17;;;;;;;;;;;;;;;-145.06;100.00;60892.56;4737781;29;19919;-95
2023/08/03 10:46:27;;;;;;;;;;;;;;;-145.06;100.00;60892.56;4739101;29;19982;-94
2023/08/03 10:49:34;;;;;;;;;;;;;;;-145.06;100.00;60892.56;4738029;29;19919;-94
2023/08/03 10:52:25;;;;;;;;;;;;;;;19.72;100.00;60892.56;4737683;29;19915;-93
2023/08/03 10:55:26;;;;;;;;;;;;;;;-145.06;100.00;60892.56;4737003;29;20507;-94
2023/08/03 10:58:14;;;;;;;;;;;;;;;-145.06;100.00;60892.56;4740634;29;19915;-95
2023/08/03 11:00:59;;;;;;;;;;;;;;;-145.06;100.00;60892.56;4741478;29;19954;-93
2023/08/03 11:04:24;;;;;;;;;;;;;;;-145.06;100.00;60892.56;4740972;29;19915;-94
2023/08/03 11:07:06;;;;;;;;;;;;;;;-145.06;100.00;60892.56;4739908;29;19919;-93
2023/08/03 11:09:47;;;;;;;;;;;;;;;-145.06;100.00;60892.56;4740125;29;19916;-94
2023/08/03 11:12:34;;;;;;;;;;;;;;;-145.06;100.00;60892.56;4740255;29;19998;-94
2023/08/03 11:15:28;;;;;;;;;;;;;;;-145.06;100.00;60892.56;4744282;29;19920;-94
2023/08/03 11:18:16;;;;;;;;;;;;;;;-145.06;100.00;60892.56;4743955;29;19915;-95
2023/08/03 11:21:01;;;;;;;;;;;;;;;-145.06;100.00;60892.56;4744163;29;20133;-95
2023/08/03 11:23:39;;;;;;;;;;;;;;;-145.06;100.00;60892.56;4743862;29;19951;-96
2023/08/03 11:26:18;;;;;;;;;;;;;;;-145.06;100.00;60892.56;4744287;29;19915;-96
2023/08/03 11:29:08;;;;;;;;;;;;;;;-145.06;100.00;60892.56;4743769;29;19915;-94
2023/08/03 11:31:50;;;;;;;;;;;;;;;-145.06;100.00;60892.56;4737605;29;20390;-92
2023/08/03 11:34:32;;;;;;;;;;;;;;;-145.06;100.00;60892.56;4743122;29;20205;-94
2023/08/03 11:37:12;;;;;;;;;;;;;;;-145.06;100.00;60892.56;4743975;29;19922;-93
2023/08/03 11:39:51;;;;;;;;;;;;;;;-145.06;100.00;60892.56;4742639;29;19919;-95
2023/08/03 11:42:33;;;;;;;;;;;;;;;-145.06;100.00;60892.56;4744032;29;19915;-95
2023/08/03 11:55:33;;;;;;;;;;;;;;;-145.06;100.00;60892.56;4734074;29;19923;-94
2023/08/03 11:58:18;;;;;;;;;;;;;;;-145.06;100.00;60892.56;4744315;29;19915;-92
2023/08/03 12:01:01;;;;;;;;;;;;;;;-145.06;100.00;60892.56;4741459;29;20402;-92
2023/08/03 12:03:40;;;;;;;;;;;;;;;-145.06;100.00;60892.56;4739995;29;20352;-93
2023/08/03 12:06:19;;;;;;;;;;;;;;;-145.06;100.00;60892.56;4740509;29;19935;-93
2023/08/03 12:08:58;;;;;;;;;;;;;;;-145.06;100.00;60892.56;4740067;29;20247;-93
2023/08/03 12:11:40;;;;;;;;;;;;;;;-145.06;100.00;60892.56;4740468;29;19915;-94
2023/08/03 12:14:19;;;;;;;;;;;;;;;-145.06;100.00;60892.56;4739326;29;19919;-93
2023/08/03 12:16:58;;;;;;;;;;;;;;;-145.06;100.00;60892.56;4739260;29;19915;-96
2023/08/03 12:19:40;;;;;;;;;;;;;;;-145.06;100.00;60892.56;4739221;29;19919;-94
2023/08/03 12:22:21;;;;;;;;;;;;;;;-145.06;100.00;60892.56;4739712;29;19915;-93
2023/08/03 12:25:03;;;;;;;;;;;;;;;-145.06;100.00;60892.56;4740006;29;19915;-94
2023/08/03 12:27:42;;;;;;;;;;;;;;;-145.06;100.00;60892.56;4738904;29;19919;-94
2023/08/03 12:30:24;;;;;;;;;;;;;;;-145.06;100.00;60892.56;4738546;29;20624;-95
2023/08/03 12:33:05;;;;;;;;;;;;;;;20.66;100.00;60892.56;4740432;29;19915;-95
2023/08/03 12:35:44;;;;;;;;;;;;;;;-145.06;100.00;60892.56;4740504;29;19919;-95
2023/08/03 12:38:28;;;;;;;;;;;;;;;20.67;100.00;60892.56;4739839;29;19916;-95
2023/08/03 12:41:08;;;;;;;;;;;;;;;-145.06;100.00;60892.56;4739440;29;19915;-93
2023/08/03 12:43:47;;;;;;;;;;;;;;;-145.06;100.00;60892.56;4739248;29;19916;-96
2023/08/03 12:46:26;;;;;;;;;;;;;;;20.75;100.00;60892.56;4739662;29;20259;-95
2023/08/03 12:49:05;;;;;;;;;;;;;;;20.80;100.00;104794.97;4739141;29;19916;-96
2023/08/03 12:51:44;;;;;;;;;;;;;;;20.87;100.00;60892.56;4739413;29;19915;-95
2023/08/03 12:54:23;;;;;;;;;;;;;;;-145.06;100.00;60892.56;4739197;29;19958;-96
2023/08/03 12:57:05;;;;;;;;;;;;;;;-145.06;100.00;60892.56;4740042;29;19919;-95
2023/08/03 13:00:38;;;;;;;;;;;;;;;-145.06;100.00;60892.56;4739754;29;19994;-95
2023/08/03 13:06:27;;;;;;;;;;;;;;;-145.06;100.00;60892.56;4714571;29;19920;-95
2023/08/03 13:09:07;;;;;;;;;;;;;;;-145.06;100.00;60892.56;4734824;29;19915;-95
2023/08/03 13:11:49;;;;;;;;;;;;;;;-145.06;100.00;60892.56;4739342;29;19915;-95
2023/08/03 13:14:44;;;;;;;;;;;;;;;-145.06;100.00;60892.56;4738902;29;19950;-96
2023/08/03 13:17:32;;;;;;;;;;;;;;;-145.06;100.00;60892.56;4739161;29;19915;-96
2023/08/03 13:20:27;;;;;;;;;;;;;;;-145.06;100.00;60892.56;4738477;29;19919;-95
2023/08/03 13:23:14;;;;;;;;;;;;;;;-145.06;100.00;60892.56;4753327;29;19911;-95
2023/08/03 13:26:02;;;;;;;;;;;;;;;-145.06;100.00;60892.56;4738562;29;19915;-96
2023/08/03 13:28:51;;;;;;;;;;;;;;;-145.06;100.00;60892.56;4738439;29;19962;-95
2023/08/03 13:31:36;;;;;;;;;;;;;;;-145.06;100.00;60892.56;4738112;29;19947;-95
2023/08/03 13:37:24;;;;;;;;;;;;;;;-145.06;100.00;60892.56;4751123;29;19915;-95
2023/08/03 13:40:34;;;;;;;;;;;;;;;-145.06;100.00;60892.56;4738117;29;19915;-96
2023/08/03 13:43:37;;;;;;;;;;;;;;;21.97;100.00;60892.56;4739566;29;19915;-95
2023/08/03 16:01:31;;;;;;;;;;;;;;;-145.06;100.00;60892.56;1201886;23;20222;-88
2023/08/03 16:04:48;;;;;;;;;;;;;;;-145.06;100.00;60892.56;4739239;29;20406;-96
2023/08/03 16:28:58;;;;;;;;;;;;;;;-145.06;100.00;60892.56;4753738;29;20548;-94
2023/08/03 16:31:39;;;;;;;;;;;;;;;-145.06;100.00;60892.56;4740860;29;20247;-92
2023/08/03 16:34:21;;;;;;;;;;;;;;;-145.06;100.00;60892.56;4739547;29;19919;-94
2023/08/03 16:37:15;;;;;;;;;;;;;;;;;;;;;
2023/08/03 16:40:15;;;;;;;;;;;;;;;-145.06;100.00;60892.56;4760468;29;19954;-94
2023/08/03 16:42:56;;;;;;;;;;;;;;;-145.06;100.00;60892.56;4755203;29;19919;-95
2023/08/03 16:45:38;;;;;;;;;;;;;;;-145.06;100.00;60892.56;4739606;29;19915;-93
2023/08/03 16:48:17;;;;;;;;;;;;;;;-145.06;100.00;60892.56;4731380;29;20010;-93
2023/08/03 16:50:55;;;;;;;;;;;;;;;-145.06;100.00;60892.56;4733942;29;20002;-93
2023/08/03 16:53:34;;;;;;;;;;;;;;;-145.06;100.00;60892.56;4738363;29;20002;-94
2023/08/03 16:56:16;;;;;;;;;;;;;;;-145.06;100.00;60892.56;4738872;29;19923;-93